createdAt,value
2023-03-16T00:02:59.090Z,-2.8
2023-03-16T00:05:59.105Z,-2.9
2023-03-16T00:08:59.126Z,-2.9
2023-03-16T00:11:59.106Z,-2.9
2023-03-16T00:14:59.083Z,-2.9
2023-03-16T00:17:59.080Z,-2.9
2023-03-16T00:20:59.083Z,-2.9
2023-03-16T00:23:59.121Z,-2.9
2023-03-16T00:26:59.093Z,-3
2023-03-16T00:29:59.094Z,-2.9
2023-03-16T00:32:59.182Z,-3
2023-03-16T00:35:59.170Z,-3.1
2023-03-16T00:38:59.119Z,-3.1
2023-03-16T00:41:59.163Z,-3.1
2023-03-16T00:44:59.148Z,-3.1
2023-03-16T00:47:59.156Z,-3
2023-03-16T00:50:59.169Z,-3
2023-03-16T00:53:59.181Z,-3.1
2023-03-16T00:56:59.190Z,-3.1
2023-03-16T00:59:59.228Z,-3.1
2023-03-16T01:02:59.238Z,-3
2023-03-16T01:05:59.204Z,-3
2023-03-16T01:08:59.208Z,-3
2023-03-16T01:11:59.216Z,-2.9
2023-03-16T01:14:59.221Z,-3
2023-03-16T01:17:59.250Z,-3
2023-03-16T01:20:59.291Z,-3
2023-03-16T01:23:59.237Z,-3
2023-03-16T01:26:59.238Z,-3
2023-03-16T01:29:59.246Z,-3.1
2023-03-16T01:32:59.294Z,-3
2023-03-16T01:35:59.399Z,-3.1
2023-03-16T01:38:59.264Z,-3.1
2023-03-16T01:41:59.292Z,-3.1
2023-03-16T01:44:59.271Z,-3.2
2023-03-16T01:47:59.275Z,-3.2
2023-03-16T01:50:59.278Z,-3.2
2023-03-16T01:53:59.308Z,-3.3
2023-03-16T01:56:59.301Z,-3.4
2023-03-16T01:59:59.298Z,-3.4
2023-03-16T02:02:59.308Z,-3.5
2023-03-16T02:05:59.308Z,-3.6
2023-03-16T02:08:59.309Z,-3.6
2023-03-16T02:11:59.355Z,-3.6
2023-03-16T02:14:59.314Z,-3.7
2023-03-16T02:17:59.324Z,-3.8
2023-03-16T02:20:59.334Z,-3.9
2023-03-16T02:23:59.328Z,-4
2023-03-16T02:26:59.348Z,-4
2023-03-16T02:29:59.405Z,-4.1
2023-03-16T02:32:59.392Z,-4.2
2023-03-16T02:35:59.388Z,-4.2
2023-03-16T02:38:59.351Z,-4.2
2023-03-16T02:41:59.369Z,-4.2
2023-03-16T02:44:59.375Z,-4.3
2023-03-16T02:47:59.406Z,-4.3
2023-03-16T02:50:59.373Z,-4.3
2023-03-16T02:53:59.381Z,-4.4
2023-03-16T02:56:59.380Z,-4.5
2023-03-16T02:59:59.385Z,-4.6
2023-03-16T03:02:59.488Z,-4.8
2023-03-16T03:05:59.418Z,-4.8
2023-03-16T03:08:59.401Z,-4.8
2023-03-16T03:11:59.407Z,-4.9
2023-03-16T03:14:59.413Z,-4.9
2023-03-16T03:17:59.419Z,-4.9
2023-03-16T03:20:59.423Z,-4.9
2023-03-16T03:23:59.463Z,-4.8
2023-03-16T03:26:59.431Z,-4.8
2023-03-16T03:29:59.439Z,-4.8
2023-03-16T03:32:59.490Z,-4.8
2023-03-16T03:35:59.495Z,-4.7
2023-03-16T03:38:59.446Z,-4.5
2023-03-16T03:41:59.471Z,-4.5
2023-03-16T03:44:59.453Z,-4.5
2023-03-16T03:47:59.458Z,-4.6
2023-03-16T03:50:59.463Z,-4.7
2023-03-16T03:53:59.460Z,-4.8
2023-03-16T03:56:59.466Z,-4.9
2023-03-16T03:59:59.493Z,-5
2023-03-16T04:02:59.648Z,-5
2023-03-16T04:05:59.475Z,-5.1
2023-03-16T04:08:59.477Z,-5.2
2023-03-16T04:11:59.484Z,-5.1
2023-03-16T04:14:59.490Z,-5.1
2023-03-16T04:17:59.520Z,-5.1
2023-03-16T04:20:59.490Z,-5.2
2023-03-16T04:23:59.498Z,-5.2
2023-03-16T04:26:59.502Z,-5.2
2023-03-16T04:29:59.509Z,-5.3
2023-03-16T04:32:59.518Z,-5.3
2023-03-16T04:35:59.634Z,-5.2
2023-03-16T04:38:59.520Z,-5.3
2023-03-16T04:41:59.537Z,-5.4
2023-03-16T04:44:59.538Z,-5.5
2023-03-16T04:47:59.536Z,-5.4
2023-03-16T04:50:59.551Z,-5.4
2023-03-16T04:53:59.582Z,-5.5
2023-03-16T04:56:59.554Z,-5.6
2023-03-16T04:59:59.551Z,-5.7
2023-03-16T05:02:59.562Z,-5.7
2023-03-16T05:05:59.793Z,-5.7
2023-03-16T05:08:59.564Z,-5.7
2023-03-16T05:11:59.588Z,-5.7
2023-03-16T05:14:59.567Z,-5.7
2023-03-16T05:17:59.577Z,-5.7
2023-03-16T05:20:59.577Z,-5.6
2023-03-16T05:23:59.583Z,-5.6
2023-03-16T05:26:59.597Z,-5.6
2023-03-16T05:29:59.622Z,-5.6
2023-03-16T05:32:59.662Z,-5.6
2023-03-16T05:35:59.681Z,-5.6
2023-03-16T05:38:59.625Z,-5.6
2023-03-16T05:41:59.637Z,-5.6
2023-03-16T05:44:59.622Z,-5.4
2023-03-16T05:47:59.663Z,-5.1
2023-03-16T05:50:59.652Z,-4.8
2023-03-16T05:53:59.643Z,-4.5
2023-03-16T05:56:59.646Z,-4.3
2023-03-16T05:59:59.661Z,-4.2
2023-03-16T06:02:59.701Z,-4.2
2023-03-16T06:05:59.697Z,-4.1
2023-03-16T06:08:59.668Z,-4.1
2023-03-16T06:11:59.681Z,-4.1
2023-03-16T06:14:59.703Z,-4
2023-03-16T06:17:59.690Z,-3.8
2023-03-16T06:20:59.693Z,-3.6
2023-03-16T06:23:59.723Z,-3.4
2023-03-16T06:26:59.718Z,-3.2
2023-03-16T06:29:59.704Z,-3.1
2023-03-16T06:32:59.819Z,-3
2023-03-16T06:35:59.760Z,-3
2023-03-16T06:38:59.721Z,-2.9
2023-03-16T06:41:59.745Z,-2.8
2023-03-16T06:44:59.728Z,-2.8
2023-03-16T06:47:59.734Z,-2.7
2023-03-16T06:50:59.742Z,-2.6
2023-03-16T06:53:59.740Z,-2.5
2023-03-16T06:56:59.748Z,-2.4
2023-03-16T06:59:59.774Z,-2.3
2023-03-16T07:03:00.550Z,-2.2
2023-03-16T07:05:59.751Z,-2
2023-03-16T07:08:59.750Z,-1.7
2023-03-16T07:11:59.747Z,-1.7
2023-03-16T07:14:59.763Z,-1.6
2023-03-16T07:17:59.788Z,-1.4
2023-03-16T07:20:59.772Z,-1.3
2023-03-16T07:23:59.774Z,-1.2
2023-03-16T07:26:59.791Z,-1.1
2023-03-16T07:29:59.778Z,-1
2023-03-16T07:32:59.875Z,-1.4
2023-03-16T07:35:59.890Z,-1.1
2023-03-16T07:38:59.798Z,-1.3
2023-03-16T07:41:59.799Z,-1
2023-03-16T07:44:59.804Z,-0.8
2023-03-16T07:47:59.805Z,-1.1
2023-03-16T07:50:59.815Z,-1.1
2023-03-16T07:53:59.835Z,-1.2
2023-03-16T07:56:59.827Z,-1.1
2023-03-16T07:59:59.826Z,-1.1
2023-03-16T08:02:59.827Z,-1.1
2023-03-16T08:05:59.829Z,-1.1
2023-03-16T08:08:59.831Z,-1.4
2023-03-16T08:11:59.880Z,-1.6
2023-03-16T08:14:59.849Z,-1.6
2023-03-16T08:17:59.852Z,-1.3
2023-03-16T08:20:59.864Z,-1.2
2023-03-16T08:23:59.862Z,-1.2
2023-03-16T08:26:59.861Z,-1.5
2023-03-16T08:29:59.901Z,-1.6
2023-03-16T08:32:59.951Z,-1.6
2023-03-16T08:35:59.916Z,-1.7
2023-03-16T08:39:06.806Z,-1.8
2023-03-16T08:41:59.882Z,-1.7
2023-03-16T08:44:59.885Z,-1.8
2023-03-16T08:47:59.921Z,-1.5
2023-03-16T08:50:59.887Z,-1.5
2023-03-16T08:53:59.891Z,-1.9
2023-03-16T08:56:59.889Z,-1.8
2023-03-16T08:59:59.894Z,-1.7
2023-03-16T09:02:59.900Z,-2
2023-03-16T09:06:00.106Z,-1.9
2023-03-16T09:08:59.915Z,-2.1
2023-03-16T09:11:59.940Z,-1.9
2023-03-16T09:14:59.939Z,-1.9
2023-03-16T09:17:59.932Z,-1.8
2023-03-16T09:21:00.240Z,-2
2023-03-16T09:23:59.994Z,-1.9
2023-03-16T09:27:00.047Z,-1.7
2023-03-16T09:29:59.952Z,-1.8
2023-03-16T09:33:00.009Z,-2
2023-03-16T09:36:00.022Z,-2.2
2023-03-16T09:38:59.949Z,-2.4
2023-03-16T09:41:59.984Z,-2.5
2023-03-16T09:44:59.960Z,-2.7
2023-03-16T09:47:59.961Z,-2.6
2023-03-16T09:51:00.044Z,-2.8
2023-03-16T09:53:59.968Z,-2.9
2023-03-16T09:56:59.972Z,-3.1
2023-03-16T10:00:00.008Z,-3.2
2023-03-16T10:02:59.976Z,-3.6
2023-03-16T10:05:59.982Z,-3.2
2023-03-16T10:08:59.986Z,-4.3
2023-03-16T10:11:59.990Z,-4.1
2023-03-16T10:15:00.053Z,-4.4
2023-03-16T10:18:00.054Z,-5
2023-03-16T10:21:00.004Z,-4.5
2023-03-16T10:24:00.003Z,-4.4
2023-03-16T10:27:00.030Z,-4.6
2023-03-16T10:30:00.015Z,-5.4
2023-03-16T10:33:00.077Z,-5.3
2023-03-16T10:36:00.071Z,-5.1
2023-03-16T10:39:00.036Z,-5.1
2023-03-16T10:42:00.029Z,-5
2023-03-16T10:45:01.854Z,-4.6
2023-03-16T10:48:00.043Z,-4.3
2023-03-16T10:51:00.050Z,-5
2023-03-16T10:54:00.128Z,-4.9
2023-03-16T10:57:00.065Z,-4.4
2023-03-16T11:00:00.072Z,-4.2
2023-03-16T11:03:00.073Z,-5.1
2023-03-16T11:06:00.076Z,-4.8
2023-03-16T11:09:00.100Z,-4.1
2023-03-16T11:12:00.125Z,-3.9
2023-03-16T11:15:00.088Z,-3.9
2023-03-16T11:18:00.108Z,-3.7
2023-03-16T11:21:00.111Z,-3.4
2023-03-16T11:24:00.138Z,-3.6
2023-03-16T11:27:00.122Z,-3.4
2023-03-16T11:30:00.190Z,-3.8
2023-03-16T11:33:00.207Z,-3.6
2023-03-16T11:36:00.225Z,-3.5
2023-03-16T11:39:00.125Z,-3.5
2023-03-16T11:42:00.156Z,-3.2
2023-03-16T11:45:00.140Z,-4.1
2023-03-16T11:48:00.185Z,-3.8
2023-03-16T11:51:00.143Z,-3.9
2023-03-16T11:54:00.141Z,-3.9
2023-03-16T11:57:00.149Z,-4.4
2023-03-16T12:00:01.298Z,-4.9
2023-03-16T12:03:00.250Z,-4.9
2023-03-16T12:06:00.810Z,-4.9
2023-03-16T12:09:00.165Z,-4.8
2023-03-16T12:12:00.159Z,-4.9
2023-03-16T12:15:00.167Z,-5.3
2023-03-16T12:18:00.173Z,-5.6
2023-03-16T12:21:00.186Z,-4.9
2023-03-16T12:24:00.217Z,-5.1
2023-03-16T12:27:00.196Z,-4.9
2023-03-16T12:30:00.213Z,-5.2
2023-03-16T12:33:00.266Z,-5.3
2023-03-16T12:36:00.306Z,-5.7
2023-03-16T12:39:00.202Z,-5.7
2023-03-16T12:42:00.232Z,-5.6
2023-03-16T12:45:00.213Z,-5.3
2023-03-16T12:48:00.210Z,-5.3
2023-03-16T12:51:00.215Z,-5.1
2023-03-16T12:54:00.219Z,-5.7
2023-03-16T12:57:00.226Z,-5.7
2023-03-16T13:00:00.267Z,-5.5
2023-03-16T13:03:00.237Z,-5.9
2023-03-16T13:06:00.242Z,-6.1
2023-03-16T13:09:00.242Z,-5.9
2023-03-16T13:12:00.254Z,-6.3
2023-03-16T13:15:00.269Z,-6.3
2023-03-16T13:18:00.292Z,-6.3
2023-03-16T13:21:00.261Z,-6.1
2023-03-16T13:24:00.264Z,-5.7
2023-03-16T13:27:00.265Z,-6.1
2023-03-16T13:30:00.281Z,-6
2023-03-16T13:33:00.285Z,-6.3
2023-03-16T13:36:00.441Z,-6.1
2023-03-16T13:39:00.280Z,-5.7
2023-03-16T13:42:00.286Z,-5.5
2023-03-16T13:45:00.288Z,-5.9
2023-03-16T13:48:00.290Z,-6.3
2023-03-16T13:51:00.287Z,-6.2
2023-03-16T13:54:00.322Z,-5.8
2023-03-16T13:57:00.296Z,-6.2
2023-03-16T14:00:00.296Z,-6.3
2023-03-16T14:03:00.409Z,-6
2023-03-16T14:06:00.307Z,-5.9
2023-03-16T14:09:00.316Z,-6
2023-03-16T14:12:00.364Z,-5.8
2023-03-16T14:15:00.321Z,-5.8
2023-03-16T14:18:00.316Z,-5.4
2023-03-16T14:21:00.335Z,-5.4
2023-03-16T14:24:00.334Z,-5.3
2023-03-16T14:27:00.322Z,-4.9
2023-03-16T14:30:00.367Z,-4.9
2023-03-16T14:33:00.372Z,-5
2023-03-16T14:36:00.343Z,-4.8
2023-03-16T14:39:00.337Z,-4.8
2023-03-16T14:42:00.340Z,-4.7
2023-03-16T14:45:00.345Z,-4.6
2023-03-16T14:48:00.380Z,-4.4
2023-03-16T14:51:00.358Z,-4.4
2023-03-16T14:54:00.359Z,-4.3
2023-03-16T14:57:00.397Z,-4.3
2023-03-16T15:00:00.415Z,-4.2
2023-03-16T15:03:00.501Z,-4.3
2023-03-16T15:06:00.461Z,-4
2023-03-16T15:09:00.433Z,-4.1
2023-03-16T15:12:00.436Z,-4
2023-03-16T15:15:00.445Z,-4.1
2023-03-16T15:18:00.453Z,-3.9
2023-03-16T15:21:00.451Z,-3.8
2023-03-16T15:24:00.497Z,-3.6
2023-03-16T15:27:00.473Z,-3.5
2023-03-16T15:30:00.476Z,-3.4
2023-03-16T15:33:00.505Z,-3.3
2023-03-16T15:36:00.534Z,-3.3
2023-03-16T15:39:00.491Z,-3.1
2023-03-16T15:42:00.521Z,-2.8
2023-03-16T15:45:00.503Z,-2.7
2023-03-16T15:48:00.512Z,-2.6
2023-03-16T15:51:00.513Z,-2.5
2023-03-16T15:54:00.516Z,-2.6
2023-03-16T15:57:00.520Z,-2.4
2023-03-16T16:00:00.551Z,-2.5
2023-03-16T16:03:00.526Z,-2.5
2023-03-16T16:06:00.526Z,-2.6
2023-03-16T16:09:00.535Z,-2.5
2023-03-16T16:12:00.546Z,-2.5
2023-03-16T16:15:00.563Z,-2.5
2023-03-16T16:18:21.156Z,-2.6
2023-03-16T16:21:00.572Z,-2.6
2023-03-16T16:24:00.560Z,-2.5
2023-03-16T16:27:00.573Z,-2.3
2023-03-16T16:30:00.571Z,-2.4
2023-03-16T16:33:00.642Z,-2.2
2023-03-16T16:36:00.657Z,-2.3
2023-03-16T16:39:00.637Z,-2.2
2023-03-16T16:42:00.594Z,-2.1
2023-03-16T16:45:00.597Z,-2.1
2023-03-16T16:48:00.594Z,-2
2023-03-16T16:51:00.609Z,-1.9
2023-03-16T16:54:00.655Z,-1.9
2023-03-16T16:57:00.639Z,-1.8
2023-03-16T17:00:00.608Z,-1.8
2023-03-16T17:03:00.620Z,-1.7
2023-03-16T17:06:00.645Z,-1.7
2023-03-16T17:09:00.648Z,-1.6
2023-03-16T17:12:00.699Z,-1.6
2023-03-16T17:15:00.693Z,-1.5
2023-03-16T17:18:00.676Z,-1.6
2023-03-16T17:21:00.699Z,-1.6
2023-03-16T17:24:00.708Z,-1.6
2023-03-16T17:27:00.774Z,-1.5
2023-03-16T17:30:00.850Z,-1.5
2023-03-16T17:33:00.788Z,-1.5
2023-03-16T17:36:00.764Z,-1.5
2023-03-16T17:39:00.752Z,-1.5
2023-03-16T17:42:00.741Z,-1.4
2023-03-16T17:45:00.738Z,-1.4
2023-03-16T17:48:00.771Z,-1.5
2023-03-16T17:51:00.744Z,-1.4
2023-03-16T17:54:00.751Z,-1.5
2023-03-16T17:57:00.740Z,-1.5
2023-03-16T18:00:00.865Z,-1.4
2023-03-16T18:03:00.747Z,-1.5
2023-03-16T18:06:00.771Z,-1.5
2023-03-16T18:09:00.757Z,-1.6
2023-03-16T18:12:00.748Z,-1.5
2023-03-16T18:15:00.756Z,-1.5
2023-03-16T18:18:00.757Z,-1.5
2023-03-16T18:21:00.766Z,-1.5
2023-03-16T18:24:00.781Z,-1.5
2023-03-16T18:27:00.773Z,-1.6
2023-03-16T18:30:00.766Z,-1.6
2023-03-16T18:33:00.810Z,-1.6
2023-03-16T18:36:00.835Z,-1.6
2023-03-16T18:39:00.778Z,-1.6
2023-03-16T18:42:00.794Z,-1.6
2023-03-16T18:45:00.775Z,-1.7
2023-03-16T18:48:00.769Z,-1.7
2023-03-16T18:51:00.771Z,-1.7
2023-03-16T18:54:00.781Z,-1.7
2023-03-16T18:57:00.784Z,-1.7
2023-03-16T19:00:00.803Z,-1.7
2023-03-16T19:03:00.777Z,-1.7
2023-03-16T19:06:00.781Z,-1.7
2023-03-16T19:09:00.780Z,-1.7
2023-03-16T19:12:00.787Z,-1.6
2023-03-16T19:15:00.775Z,-1.6
2023-03-16T19:18:00.907Z,-1.6
2023-03-16T19:21:00.790Z,-1.5
2023-03-16T19:24:00.808Z,-1.6
2023-03-16T19:27:00.796Z,-1.5
2023-03-16T19:30:00.793Z,-1.5
2023-03-16T19:33:00.928Z,-1.5
2023-03-16T19:36:00.890Z,-1.5
2023-03-16T19:39:00.816Z,-1.5
2023-03-16T19:42:00.820Z,-1.5
2023-03-16T19:45:00.821Z,-1.5
2023-03-16T19:48:00.819Z,-1.4
2023-03-16T19:51:00.826Z,-1.4
2023-03-16T19:54:01.503Z,-1.4
2023-03-16T19:57:00.824Z,-1.4
2023-03-16T20:00:00.838Z,-1.4
2023-03-16T20:03:00.845Z,-1.4
2023-03-16T20:06:00.839Z,-1.4
2023-03-16T20:09:00.840Z,-1.4
2023-03-16T20:12:00.878Z,-1.4
2023-03-16T20:15:00.854Z,-1.4
2023-03-16T20:18:00.849Z,-1.4
2023-03-16T20:21:00.850Z,-1.4
2023-03-16T20:24:00.898Z,-1.4
2023-03-16T20:27:00.865Z,-1.4
2023-03-16T20:30:00.885Z,-1.3
2023-03-16T20:33:00.966Z,-1.4
2023-03-16T20:36:00.911Z,-1.4
2023-03-16T20:39:00.874Z,-1.4
2023-03-16T20:42:00.883Z,-1.4
2023-03-16T20:45:00.904Z,-1.4
2023-03-16T20:48:00.914Z,-1.4
2023-03-16T20:51:00.887Z,-1.4
2023-03-16T20:54:00.897Z,-1.4
2023-03-16T20:57:00.895Z,-1.3
2023-03-16T21:00:00.889Z,-1.3
2023-03-16T21:03:00.889Z,-1.3
2023-03-16T21:06:00.922Z,-1.3
2023-03-16T21:09:00.894Z,-1.3
2023-03-16T21:12:00.896Z,-1.3
2023-03-16T21:15:00.908Z,-1.3
2023-03-16T21:18:00.908Z,-1.2
2023-03-16T21:21:00.910Z,-1.2
2023-03-16T21:24:03.297Z,-1.2
2023-03-16T21:27:00.918Z,-1.2
2023-03-16T21:30:00.919Z,-1.1
2023-03-16T21:33:00.959Z,-1.1
2023-03-16T21:36:00.988Z,-1.1
2023-03-16T21:39:00.923Z,-1.2
2023-03-16T21:42:00.949Z,-1.1
2023-03-16T21:45:00.926Z,-1.2
2023-03-16T21:48:00.917Z,-1.1
2023-03-16T21:51:00.926Z,-1.1
2023-03-16T21:54:00.926Z,-1.1
2023-03-16T21:57:00.925Z,-1
2023-03-16T22:00:00.956Z,-1
2023-03-16T22:03:01.142Z,-1
2023-03-16T22:06:00.934Z,-0.9
2023-03-16T22:09:00.930Z,-1
2023-03-16T22:12:00.932Z,-1
2023-03-16T22:15:00.932Z,-1
2023-03-16T22:18:00.955Z,-1
2023-03-16T22:21:00.938Z,-1
2023-03-16T22:24:00.939Z,-0.9
2023-03-16T22:27:00.936Z,-1
2023-03-16T22:30:00.938Z,-1
2023-03-16T22:33:01.023Z,-1
2023-03-16T22:36:01.033Z,-1
2023-03-16T22:39:00.960Z,-1
2023-03-16T22:42:00.949Z,-1
2023-03-16T22:45:00.957Z,-1
2023-03-16T22:48:00.960Z,-1.1
2023-03-16T22:51:00.959Z,-1.1
2023-03-16T22:54:00.984Z,-1.1
2023-03-16T22:57:00.961Z,-1.1
2023-03-16T23:00:00.959Z,-1.1
2023-03-16T23:03:00.968Z,-1.1
2023-03-16T23:06:00.970Z,-1.1
2023-03-16T23:09:00.961Z,-1.1
2023-03-16T23:12:00.997Z,-1.1
2023-03-16T23:15:00.966Z,-1.1
2023-03-16T23:18:00.973Z,-1
2023-03-16T23:21:00.976Z,-1
2023-03-16T23:24:04.172Z,-1
2023-03-16T23:27:00.986Z,-1
2023-03-16T23:30:01.110Z,-1
2023-03-16T23:33:01.034Z,-1
2023-03-16T23:36:00.982Z,-1
2023-03-16T23:39:00.981Z,-1
2023-03-16T23:42:00.986Z,-0.9
2023-03-16T23:45:00.982Z,-0.9
2023-03-16T23:48:01.009Z,-0.9
2023-03-16T23:51:00.993Z,-0.9
2023-03-16T23:54:00.992Z,-0.8
2023-03-16T23:57:00.986Z,-0.8
